Terminal Aerodrome Forecast
Issued by NWS San Angelo, TX

Home | Current Version | Previous Version | Text Only | Print | Product List | Glossary On
Versions: 1 2 3 4 5 6 7 8 9 10 11 12 13 14 15 16 17 18 19
000
FTUS44 KSJT 250530
TAFSJT
TAF
KSJT 250530Z 2506/2606 18012G18KT P6SM SCT015
     FM250700 16012G18KT P6SM OVC015
     FM251600 22014G20KT P6SM BKN250
     FM252100 20009KT P6SM BKN250
     FM260000 18009KT P6SM OVC250 PROB30 2602/2604 P6SM TSRA
      BKN050CB=

USA.gov is the U.S. government's official web portal to all federal, state and local government web resources and services.